Columbia Gorge Regional the Dalles Municipal Airport
KDLS : now visible

Airfield :











YOU CAN JOIN US ON...

 
LOGIN :

Register | Disclaimer

   EN    FR    IT 

 









Legend :    VFR   Marginal VFR   IFR   Intensive IFR   Very Intensive IFR
Visi :
Ceiling :
>= 8 km
>= 3000ft
5 to 8 km
1000 to 3000 ft
1500m to 5 km
500 to 1000 ft
800 to 1500m
200 to 500 ft
< 800m
< 200 ft
Symbols :   Thunderstorms  Fog  Heavy snow  Heavy precipitations  Wind > 20 kt






- Airport Elevation : 247 ft


KDLS - Columbia Gorge Regional the Dalles Municipal

CURRENT METAR :
  • 181641Z AUTO 24004KT 1 1/4SM -SN BR OVC006 00/M01 A3026 RMK AO2 P0001 T00001011

EXPIRED METARs :
  • 181623Z AUTO 00000KT 1/2SM -SN FG BKN005 BKN014 OVC024 00/M01 A3026 RMK AO2 P0000 T00001011
  • 181600Z AUTO 00000KT 1 3/4SM -SN BR FEW007 SCT012 OVC025 00/M01 A3025 RMK AO2 P0000 T00001011
  • 181553Z AUTO 00000KT 2 1/2SM -SN BR SCT012 OVC025 00/M02 A3025 RMK AO2 SLP247 P0001 T00001017
  • 181530Z AUTO 00000KT 4SM -SN BR FEW009 BKN013 OVC025 00/M01 A3025 RMK AO2 P0001 T00001011
  • 181513Z AUTO 00000KT 3SM -SN BR SCT010 BKN014 OVC026 00/M01 A3024 RMK AO2 P0001 T00001011
  • 181453Z AUTO 00000KT 1 1/2SM -SN BR BKN012 OVC025 00/M01 A3025 RMK AO2 SLP245 P0001 60001 T00001011 55000
  • 181441Z AUTO 05003KT 3SM -SN BR BKN013 OVC024 00/M02 A3024 RMK AO2 P0001 T00001017
  • 181432Z AUTO 15004KT 2 1/2SM -SN BR SCT013 OVC023 00/M02 A3024 RMK AO2 P0001 T00001017
  • 181400Z AUTO 15003KT 1 1/4SM -SN BR OVC023 M01/M02 A3024 RMK AO2 P0000 T10061017

TAF KDLS
Valid from the 18 at 16:00 until the 19 at 12:00 UTC


181624Z 1816/1912 VRB02KT 2SM -SN BR BKN015 OVC025
TEMPO 1816/1820 1/2SM SN FG SCT005 OVC015
FM182200 VRB02KT 5SM BR VCSH OVC020
FM190200 VRB02KT 4SM BR OVC004



MET'MAP, your aeronautical weather chart ! - Copyright ORBIFLY December 2007 - Disclaimer

ORBIFLY MET'MAP TEAM :

Programming & Development : Alexandra Zaïnal
Concept & original design : Baudouin d'Aumeries
Assistance for programming : Marc-Olivier Méhu
Technical & hardware support : Manuel Goepfert

Contact : metmap@orbifly.com




SOURCES & CREDITS :

   NOAA       Earth
Advisory